Time;durP1;ratioP1;P1;durP2;ratioP2;P2;SDS_P1;SDS_P2;PMS_P1;PMS_P2;Temp;Humidity;BMP_temperature;BMP_pressure;BME280_temperature;BME280_humidity;BME280_pressure;Samples;Min_cycle;Max_cycle;Signal;HPM_P1;HPM_P2
2022/01/28 00:04:45;;;;;;;14.80;2.40;;;;;;;3.80;89.46;102950.88;5001657;28;20049;-62
2022/01/28 00:07:10;;;;;;;15.35;2.42;;;;;;;3.73;89.31;102955.16;5005203;28;20025;-62
2022/01/28 00:09:36;;;;;;;12.23;2.60;;;;;;;3.68;89.28;102949.25;5004828;28;20061;-62
2022/01/28 00:12:01;;;;;;;15.43;3.10;;;;;;;3.67;89.46;102950.25;5002599;28;20026;-62
2022/01/28 00:14:38;;;;;;;14.45;3.25;;;;;;;3.66;89.33;102968.41;5002779;28;20100;-62
2022/01/28 00:17:44;;;;;;;9.80;2.23;;;;;;;3.62;89.60;102975.09;5004664;28;20053;-62
2022/01/28 00:20:52;;;;;;;15.05;2.53;;;;;;;3.64;89.43;102978.53;5003634;28;20544;-62
2022/01/28 00:37:00;;;;;;;17.67;3.95;;;;;;;3.53;90.02;102974.03;5005402;28;20574;-62
2022/01/28 00:39:25;;;;;;;15.13;3.15;;;;;;;3.53;90.44;102974.03;5004420;28;20068;-62
2022/01/28 00:41:51;;;;;;;11.93;2.40;;;;;;;3.51;90.38;102967.88;5002778;28;20120;-62
2022/01/28 00:44:16;;;;;;;17.50;2.50;;;;;;;3.49;90.83;102969.00;5002848;28;20080;-62
2022/01/28 00:46:41;;;;;;;19.67;4.40;;;;;;;3.48;90.83;102979.00;5004059;28;20029;-62
2022/01/28 00:49:06;;;;;;;13.45;2.33;;;;;;;3.51;91.02;102964.31;5004362;28;20061;-62
2022/01/28 00:51:32;;;;;;;16.05;3.90;;;;;;;3.58;91.24;102970.94;5004238;28;20022;-62
2022/01/28 00:53:57;;;;;;;16.30;2.83;;;;;;;3.58;91.38;102977.22;5002652;28;20444;-62
2022/01/28 00:56:22;;;;;;;17.90;2.92;;;;;;;3.59;91.27;102970.78;5003272;28;20072;-62
2022/01/28 00:58:48;;;;;;;14.07;2.70;;;;;;;3.64;90.66;102968.53;5006003;28;20116;-62
2022/01/28 01:01:14;;;;;;;19.42;3.63;;;;;;;3.67;90.77;102972.00;5010411;28;20101;-62
2022/01/28 01:03:39;;;;;;;14.13;2.97;;;;;;;3.72;90.42;102965.16;5009910;28;20034;-62
2022/01/28 01:06:04;;;;;;;15.77;2.58;;;;;;;3.80;90.20;102967.19;5011111;28;20484;-62
2022/01/28 01:08:29;;;;;;;16.38;3.22;;;;;;;3.85;89.37;102967.66;5010786;28;20033;-62
2022/01/28 01:10:55;;;;;;;13.80;2.58;;;;;;;3.86;89.80;102974.84;5008256;28;20025;-62
2022/01/28 01:13:20;;;;;;;14.43;2.92;;;;;;;3.84;89.85;102971.38;5010536;28;20037;-62
2022/01/28 01:15:50;;;;;;;17.70;3.05;;;;;;;3.86;89.21;102969.41;5009935;28;20449;-62
2022/01/28 01:18:24;;;;;;;15.07;2.60;;;;;;;3.86;89.36;102974.84;5010693;28;20381;-62
2022/01/28 01:23:27;;;;;;;16.88;3.28;;;;;;;3.89;89.31;102977.25;5010771;28;20225;-62
2022/01/28 01:28:31;;;;;;;18.73;2.70;;;;;;;3.92;89.59;102978.88;5010383;28;20034;-62
2022/01/28 01:30:58;;;;;;;22.52;3.08;;;;;;;3.90;89.68;102992.56;5008761;28;20826;-62
2022/01/28 01:33:24;;;;;;;13.35;3.05;;;;;;;3.89;89.77;102990.84;5009838;28;20125;-62
2022/01/28 01:35:50;;;;;;;15.65;2.95;;;;;;;3.86;89.44;103002.00;5006127;28;20060;-62
2022/01/28 01:38:15;;;;;;;15.32;2.70;;;;;;;3.88;89.82;103000.00;5010146;28;20042;-62
2022/01/28 01:40:46;;;;;;;15.07;2.70;;;;;;;3.87;90.03;103011.88;5008442;28;20041;-62
2022/01/28 01:54:01;;;;;;;15.90;3.20;;;;;;;3.86;89.67;103040.06;5002043;28;20117;-62
2022/01/28 01:56:28;;;;;;;14.60;2.53;;;;;;;3.84;90.12;103051.06;4990116;28;20041;-62
2022/01/28 01:58:54;;;;;;;14.13;2.67;;;;;;;3.83;90.21;103059.34;4990000;28;20057;-62
2022/01/28 02:01:19;;;;;;;13.70;2.92;;;;;;;3.84;89.93;103048.34;5007509;28;20049;-62
2022/01/28 02:03:44;;;;;;;14.43;2.63;;;;;;;3.85;90.07;103058.25;5009811;28;20053;-62
2022/01/28 02:06:10;;;;;;;20.42;3.15;;;;;;;3.83;90.08;103062.06;5009713;28;20058;-62
2022/01/28 02:08:35;;;;;;;13.93;3.15;;;;;;;3.80;90.28;103065.94;5010765;28;20068;-62
2022/01/28 02:11:01;;;;;;;14.90;2.88;;;;;;;3.81;90.52;103061.34;5003481;28;20052;-62
2022/01/28 02:13:33;;;;;;;15.50;3.08;;;;;;;3.81;90.06;103055.91;5006667;28;20111;-62
2022/01/28 02:15:59;;;;;;;14.70;2.60;;;;;;;3.82;90.52;103061.22;5005066;28;20034;-62
2022/01/28 02:18:25;;;;;;;13.18;2.50;;;;;;;3.84;90.58;103064.66;5005873;28;20189;-62
2022/01/28 02:20:54;;;;;;;16.45;2.80;;;;;;;3.88;90.53;103060.69;5006703;28;20602;-62
2022/01/28 02:23:21;;;;;;;14.75;2.92;;;;;;;3.87;90.24;103066.25;5007023;28;20042;-62
2022/01/28 02:25:47;;;;;;;20.58;3.05;;;;;;;3.93;90.23;103067.56;5005455;28;20026;-62
2022/01/28 02:28:16;;;;;;;13.27;2.67;;;;;;;3.96;90.34;103076.34;5005562;28;20045;-62
2022/01/28 02:30:41;;;;;;;14.63;2.80;;;;;;;3.98;90.13;103082.50;5005816;28;20037;-62
2022/01/28 02:33:16;;;;;;;19.67;2.88;;;;;;;4.01;90.14;103071.38;5006488;28;20041;-62
2022/01/28 02:35:43;;;;;;;13.77;2.95;;;;;;;4.01;90.14;103075.94;5006079;28;20029;-62
2022/01/28 02:38:13;;;;;;;20.42;2.90;;;;;;;3.99;90.66;103077.91;5005493;28;20052;-63
2022/01/28 02:40:43;;;;;;;17.42;2.97;;;;;;;3.96;90.27;103081.78;5004981;28;20045;-62
2022/01/28 02:45:46;;;;;;;19.05;2.80;;;;;;;3.94;90.65;103085.59;5002543;28;20061;-62
2022/01/28 02:48:22;;;;;;;15.65;2.80;;;;;;;3.92;91.15;103091.19;5004095;28;20025;-62
2022/01/28 02:51:14;;;;;;;20.02;2.72;;;;;;;3.95;90.87;103087.31;5006109;28;20108;-62
2022/01/28 02:53:49;;;;;;;14.88;2.83;;;;;;;3.96;90.79;103091.78;5005238;28;20121;-62
2022/01/28 02:56:21;;;;;;;15.13;2.65;;;;;;;3.99;90.63;103096.94;5002972;28;20044;-62
2022/01/28 02:58:47;;;;;;;13.40;2.90;;;;;;;4.00;90.74;103098.66;5005225;28;20026;-62
2022/01/28 03:01:15;;;;;;;14.35;3.13;;;;;;;3.99;90.80;103097.81;5006292;28;20026;-62
2022/01/28 03:03:42;;;;;;;13.27;2.42;;;;;;;3.99;90.66;103096.94;5005221;28;20038;-62
2022/01/28 03:06:07;;;;;;;18.53;2.83;;;;;;;4.01;90.59;103105.84;5003082;28;20172;-62
2022/01/28 03:08:33;;;;;;;16.98;2.97;;;;;;;4.02;90.63;103111.16;5005775;28;20800;-62
2022/01/28 03:11:25;;;;;;;13.80;2.35;;;;;;;4.03;90.78;103110.16;5004851;28;20165;-62
2022/01/28 03:16:31;;;;;;;17.13;2.75;;;;;;;4.05;91.03;103112.72;5005006;28;20053;-62
2022/01/28 03:19:01;;;;;;;21.08;2.97;;;;;;;4.02;91.23;103113.88;5003861;28;20026;-62
2022/01/28 03:23:56;;;;;;;16.70;2.92;;;;;;;4.00;91.00;103112.25;5005145;28;20435;-62
2022/01/28 03:26:24;;;;;;;15.82;2.80;;;;;;;3.98;91.38;103115.13;5003671;28;20088;-62
2022/01/28 03:28:49;;;;;;;12.90;2.83;;;;;;;3.98;91.52;103108.81;5004916;28;20472;-62
2022/01/28 03:31:15;;;;;;;18.70;2.53;;;;;;;3.98;91.72;103108.81;5005452;28;20021;-62
2022/01/28 03:33:40;;;;;;;16.80;3.28;;;;;;;3.92;91.67;103104.78;5004384;28;20038;-62
2022/01/28 03:36:10;;;;;;;14.23;2.83;;;;;;;3.87;92.07;103109.75;5003700;28;20465;-62
2022/01/28 03:38:37;;;;;;;17.95;2.63;;;;;;;3.80;91.91;103112.13;5005627;28;20030;-62
2022/01/28 03:41:03;;;;;;;14.18;2.25;;;;;;;3.78;92.31;103122.25;5003503;28;20025;-62
2022/01/28 03:43:28;;;;;;;16.45;3.00;;;;;;;3.72;92.12;103127.38;5005092;28;20045;-62
2022/01/28 03:45:53;;;;;;;15.45;2.28;;;;;;;3.70;92.74;103126.59;5003593;28;20129;-62
2022/01/28 03:48:19;;;;;;;18.73;3.38;;;;;;;3.66;92.96;103127.88;5002524;28;20550;-62
2022/01/28 03:50:44;;;;;;;14.13;2.50;;;;;;;3.61;93.00;103128.28;5003703;28;20038;-62
2022/01/28 03:53:09;;;;;;;17.80;2.92;;;;;;;3.56;93.32;103125.94;5004790;28;20488;-62
2022/01/28 03:55:36;;;;;;;16.58;2.88;;;;;;;3.45;93.48;103127.81;5002999;28;20030;-62
2022/01/28 03:58:02;;;;;;;14.73;2.60;;;;;;;3.38;93.87;103135.63;5004405;28;20028;-62
2022/01/28 04:00:30;;;;;;;12.13;2.80;;;;;;;3.31;94.23;103140.69;5004704;28;20040;-62
2022/01/28 04:13:45;;;;;;;19.30;2.70;;;;;;;3.15;95.77;103139.38;5004978;28;20501;-62
2022/01/28 04:18:42;;;;;;;19.35;3.67;;;;;;;3.19;96.10;103143.53;5004482;28;20069;-62
2022/01/28 04:21:07;;;;;;;15.60;3.65;;;;;;;3.16;96.10;103146.53;5004292;28;20053;-62
2022/01/28 04:23:32;;;;;;;15.32;2.60;;;;;;;3.14;96.05;103152.06;5004635;28;20109;-63
2022/01/28 04:25:57;;;;;;;19.00;2.85;;;;;;;3.17;96.25;103146.41;5001914;28;20100;-62
2022/01/28 04:28:23;;;;;;;19.15;3.03;;;;;;;3.18;96.61;103142.69;5004610;28;20053;-62
2022/01/28 04:30:48;;;;;;;14.85;2.63;;;;;;;3.22;96.80;103146.88;5003270;28;20061;-62
2022/01/28 04:33:13;;;;;;;18.63;2.78;;;;;;;3.25;96.77;103149.34;5004075;28;20030;-62
2022/01/28 04:35:39;;;;;;;13.98;2.55;;;;;;;3.25;96.70;103157.50;5003569;28;20032;-62
2022/01/28 04:40:39;;;;;;;18.45;2.42;;;;;;;3.26;97.01;103161.09;5003895;28;20030;-62
2022/01/28 04:43:17;;;;;;;18.90;2.63;;;;;;;3.26;97.58;103166.50;5004706;28;20033;-62
2022/01/28 04:51:10;;;;;;;15.40;2.60;;;;;;;3.24;97.50;103173.91;4997566;28;20038;-62
2022/01/28 04:53:57;;;;;;;16.17;2.78;;;;;;;3.21;97.71;103174.19;4985078;28;20031;-63
2022/01/28 05:04:06;;;;;;;17.40;3.13;;;;;;;3.13;98.37;103183.78;5003310;28;20430;-62
2022/01/28 05:09:51;;;;;;;15.20;3.22;;;;;;;3.11;98.36;103187.63;5002699;28;20134;-62
2022/01/28 05:15:14;;;;;;;15.40;2.65;;;;;;;3.12;99.06;103190.22;4998190;28;20041;-62
2022/01/28 05:28:28;;;;;;;14.15;3.10;;;;;;;2.99;99.46;103213.94;5002703;28;20547;-62
2022/01/28 05:30:53;;;;;;;14.48;3.05;;;;;;;2.99;99.98;103222.06;4988615;28;20065;-62
2022/01/28 05:33:18;;;;;;;17.35;3.13;;;;;;;2.96;99.74;103214.16;4990592;28;20041;-62
2022/01/28 05:35:44;;;;;;;16.15;3.53;;;;;;;2.93;99.76;103213.53;4987862;28;20030;-62
2022/01/28 05:38:09;;;;;;;15.98;3.50;;;;;;;2.93;100.00;103219.81;4983905;28;20033;-62
2022/01/28 05:40:35;;;;;;;21.35;3.28;;;;;;;2.92;100.00;103222.66;4984898;28;20030;-62
2022/01/28 05:43:01;;;;;;;14.90;4.05;;;;;;;2.90;100.00;103232.78;4990161;28;20576;-62
2022/01/28 05:45:26;;;;;;;17.85;3.47;;;;;;;2.86;100.00;103237.59;5002799;28;20104;-62
2022/01/28 05:47:52;;;;;;;16.75;3.50;;;;;;;2.83;99.94;103243.25;5007036;28;20029;-62
2022/01/28 05:50:17;;;;;;;22.65;7.40;;;;;;;2.81;99.95;103237.09;5005673;28;20025;-62
2022/01/28 05:52:42;;;;;;;17.30;7.10;;;;;;;2.79;100.00;103239.06;5006921;28;20064;-62
2022/01/28 05:55:08;;;;;;;20.25;9.10;;;;;;;2.79;100.00;103239.06;5006339;28;20026;-62
2022/01/28 05:57:33;;;;;;;17.65;7.05;;;;;;;2.76;100.00;103242.88;5007236;28;20045;-62
2022/01/28 05:59:58;;;;;;;17.25;4.97;;;;;;;2.72;100.00;103246.81;5003199;28;20026;-62
2022/01/28 06:02:24;;;;;;;20.35;5.05;;;;;;;2.67;99.59;103250.88;5006248;28;20084;-62
2022/01/28 06:04:49;;;;;;;14.15;3.60;;;;;;;2.59;99.34;103255.06;5006723;28;20046;-62
2022/01/28 06:07:15;;;;;;;14.52;3.10;;;;;;;2.54;99.21;103262.69;5006088;28;20040;-62
2022/01/28 06:09:40;;;;;;;17.25;3.30;;;;;;;2.52;99.68;103270.06;4986027;28;20061;-62
2022/01/28 06:12:06;;;;;;;18.50;4.75;;;;;;;2.49;99.72;103264.91;4987227;28;20050;-62
2022/01/28 06:14:31;;;;;;;20.05;6.68;;;;;;;2.49;99.76;103258.63;4986744;28;20092;-62
2022/01/28 06:16:56;;;;;;;18.70;4.80;;;;;;;2.46;99.60;103258.84;4986738;28;20066;-62
2022/01/28 06:19:22;;;;;;;20.23;4.30;;;;;;;2.42;98.96;103262.75;5002449;28;20531;-62
2022/01/28 06:21:47;;;;;;;15.40;3.60;;;;;;;2.42;99.07;103279.91;4997240;28;20065;-62
2022/01/28 06:24:12;;;;;;;16.90;4.15;;;;;;;2.42;99.51;103273.59;4986323;28;20030;-62
2022/01/28 06:26:38;;;;;;;20.25;4.20;;;;;;;2.39;99.52;103272.00;5000052;28;20022;-62
2022/01/28 06:29:03;;;;;;;15.13;2.75;;;;;;;2.38;99.21;103270.25;5003765;28;20030;-62
2022/01/28 06:31:29;;;;;;;16.95;4.45;;;;;;;2.30;99.06;103280.84;5006268;28;20077;-62
2022/01/28 06:33:54;;;;;;;15.55;3.97;;;;;;;2.27;99.48;103298.19;5005887;28;20392;-62
2022/01/28 06:36:22;;;;;;;15.25;3.20;;;;;;;2.29;99.25;103303.53;5006107;28;20030;-62
2022/01/28 06:38:48;;;;;;;19.60;3.85;;;;;;;2.28;98.84;103301.78;5003359;28;20021;-62
2022/01/28 06:41:13;;;;;;;12.38;2.97;;;;;;;2.17;98.42;103309.84;5006069;28;20083;-62
2022/01/28 06:43:39;;;;;;;14.57;3.17;;;;;;;2.12;98.08;103312.03;5006048;28;20432;-62
2022/01/28 06:46:04;;;;;;;15.00;3.67;;;;;;;2.01;98.41;103319.13;5006164;28;20030;-62
2022/01/28 06:48:30;;;;;;;14.02;2.88;;;;;;;1.96;98.63;103324.03;5004661;28;20030;-62
2022/01/28 06:50:55;;;;;;;15.43;3.88;;;;;;;1.87;98.27;103324.69;5003913;28;20114;-62
2022/01/28 06:53:20;;;;;;;14.82;3.20;;;;;;;1.77;98.64;103327.25;5006091;28;20034;-62
2022/01/28 06:55:46;;;;;;;14.40;3.28;;;;;;;1.70;98.30;103346.75;5004747;28;20133;-62
2022/01/28 06:58:11;;;;;;;16.65;3.95;;;;;;;1.66;98.63;103345.25;5004748;28;20477;-62
2022/01/28 07:00:37;;;;;;;18.30;3.65;;;;;;;1.61;98.83;103342.88;5005806;28;20498;-62
2022/01/28 07:03:07;;;;;;;16.02;3.63;;;;;;;1.55;99.13;103344.16;5005611;28;20054;-62
2022/01/28 07:05:32;;;;;;;13.15;3.17;;;;;;;1.52;99.08;103362.47;5005489;28;20026;-62
2022/01/28 07:07:58;;;;;;;20.52;3.88;;;;;;;1.51;99.64;103371.59;5004852;28;20042;-62
2022/01/28 07:10:24;;;;;;;16.55;3.90;;;;;;;1.51;100.00;103372.44;5004490;28;20053;-62
2022/01/28 07:12:49;;;;;;;19.55;4.05;;;;;;;1.48;99.69;103361.84;5005705;28;20392;-62
2022/01/28 07:15:15;;;;;;;17.05;5.32;;;;;;;1.44;99.82;103365.75;5004733;28;20026;-62
2022/01/28 07:17:40;;;;;;;19.17;4.43;;;;;;;1.41;99.71;103362.38;5003857;28;20050;-62
2022/01/28 07:20:06;;;;;;;18.48;4.95;;;;;;;1.38;99.89;103366.19;5005737;28;20026;-62
2022/01/28 07:22:31;;;;;;;24.30;7.70;;;;;;;1.38;100.00;103371.59;5005301;28;20030;-62
2022/01/28 07:24:57;;;;;;;27.95;17.30;;;;;;;1.39;100.00;103369.75;5004414;28;20388;-62
2022/01/28 07:27:22;;;;;;;30.35;18.33;;;;;;;1.36;100.00;103364.53;5004322;28;20100;-62
2022/01/28 07:29:49;;;;;;;32.65;17.45;;;;;;;1.33;99.92;103362.06;5004818;28;20049;-62
2022/01/28 07:32:14;;;;;;;28.63;17.70;;;;;;;1.29;99.62;103369.53;5005196;28;20444;-62
2022/01/28 07:34:40;;;;;;;23.15;11.95;;;;;;;1.25;99.75;103389.66;5002059;28;20054;-62
2022/01/28 07:37:05;;;;;;;20.30;8.98;;;;;;;1.21;99.44;103389.00;4998154;28;20600;-62
2022/01/28 07:39:30;;;;;;;19.98;8.10;;;;;;;1.24;100.00;103393.34;5001747;28;20071;-62
2022/01/28 07:41:56;;;;;;;15.88;7.97;;;;;;;1.27;100.00;103391.31;5004773;28;20054;-62
2022/01/28 07:44:22;;;;;;;17.63;7.72;;;;;;;1.32;100.00;103399.13;5004735;28;20362;-62
2022/01/28 07:46:47;;;;;;;18.20;5.90;;;;;;;1.37;100.00;103404.19;5001491;28;20038;-62
2022/01/28 07:49:12;;;;;;;21.52;6.20;;;;;;;1.44;100.00;103400.94;5004981;28;20406;-62
2022/01/28 07:51:38;;;;;;;18.15;6.85;;;;;;;1.56;100.00;103399.19;5005367;28;20018;-62
2022/01/28 07:54:04;;;;;;;16.20;4.80;;;;;;;1.72;100.00;103396.25;5004177;28;20029;-62
2022/01/28 07:56:29;;;;;;;15.82;6.28;;;;;;;1.78;99.73;103407.53;4996120;28;20029;-62
2022/01/28 07:58:54;;;;;;;20.80;7.63;;;;;;;1.81;99.01;103403.72;5004207;28;20532;-62
2022/01/28 08:01:20;;;;;;;16.73;8.30;;;;;;;1.84;99.13;103419.78;5005022;28;20038;-62
2022/01/28 08:03:45;;;;;;;19.25;9.48;;;;;;;1.90;99.15;103413.06;5003952;28;20037;-62
2022/01/28 08:06:10;;;;;;;22.85;8.98;;;;;;;2.05;98.74;103420.94;5002065;28;20034;-62
2022/01/28 08:08:35;;;;;;;24.92;8.25;;;;;;;2.23;98.57;103421.44;5002937;28;20029;-62
2022/01/28 08:11:01;;;;;;;21.75;7.85;;;;;;;2.41;97.79;103418.34;5004158;28;20048;-62
2022/01/28 08:13:26;;;;;;;16.60;6.68;;;;;;;2.63;97.53;103423.00;5002090;28;20038;-62
2022/01/28 08:15:52;;;;;;;18.48;6.22;;;;;;;2.90;96.28;103431.81;5003067;28;20033;-62
2022/01/28 08:18:17;;;;;;;17.92;6.47;;;;;;;3.20;95.31;103435.88;5004541;28;20026;-62
2022/01/28 08:20:44;;;;;;;19.05;6.18;;;;;;;3.35;93.87;103437.38;5010348;28;20055;-62
2022/01/28 08:23:09;;;;;;;15.65;6.03;;;;;;;3.40;92.44;103443.31;5007258;28;20033;-62
2022/01/28 08:25:35;;;;;;;11.57;5.57;;;;;;;3.55;91.05;103453.00;5002523;28;20055;-62
2022/01/28 08:28:04;;;;;;;12.70;5.72;;;;;;;3.72;90.15;103458.94;5004227;28;20034;-62
2022/01/28 08:30:30;;;;;;;20.92;6.38;;;;;;;4.16;88.61;103453.53;5004195;28;20093;-63
2022/01/28 08:32:55;;;;;;;17.55;6.38;;;;;;;4.75;87.10;103452.28;5003832;28;20140;-63
2022/01/28 08:35:28;;;;;;;15.57;6.10;;;;;;;5.29;85.27;103451.31;5003400;28;20428;-63
2022/01/28 08:37:53;;;;;;;17.52;6.60;;;;;;;5.85;82.80;103441.91;5003961;28;20048;-63
2022/01/28 08:40:19;;;;;;;17.08;6.05;;;;;;;6.08;81.91;103456.25;5000825;28;20481;-63
2022/01/28 08:42:44;;;;;;;12.75;5.25;;;;;;;6.41;80.39;103455.09;5002571;28;20032;-63
2022/01/28 08:45:10;;;;;;;17.77;5.40;;;;;;;6.95;78.99;103443.69;4993243;28;20038;-63
2022/01/28 08:47:35;;;;;;;14.18;4.70;;;;;;;7.72;76.47;103439.97;4998183;28;20033;-63
2022/01/28 08:50:01;;;;;;;16.10;5.07;;;;;;;8.38;73.77;103440.91;4994560;28;20026;-63
2022/01/28 08:52:26;;;;;;;15.48;5.03;;;;;;;8.82;71.98;103450.13;5002306;28;20029;-63
2022/01/28 08:54:51;;;;;;;17.73;5.03;;;;;;;9.18;69.13;103445.50;5001314;28;20030;-63
2022/01/28 08:57:17;;;;;;;15.55;4.82;;;;;;;9.30;68.56;103441.50;5004595;28;20084;-63
2022/01/28 08:59:44;;;;;;;13.30;4.57;;;;;;;9.54;67.41;103437.22;5003160;28;20433;-63
2022/01/28 09:02:10;;;;;;;16.27;5.40;;;;;;;9.64;66.35;103448.97;5002156;28;20065;-63
2022/01/28 09:04:36;;;;;;;16.02;5.47;;;;;;;9.15;67.00;103459.53;4998185;28;20081;-63
2022/01/28 09:07:01;;;;;;;13.85;5.10;;;;;;;8.58;69.45;103454.31;5004000;28;20504;-63
2022/01/28 09:09:28;;;;;;;18.27;5.70;;;;;;;8.61;69.54;103460.50;4998671;28;20030;-63
2022/01/28 09:12:06;;;;;;;12.90;5.47;;;;;;;9.12;68.53;103457.09;5002097;28;20022;-63
2022/01/28 09:14:31;;;;;;;14.02;5.32;;;;;;;10.04;65.59;103445.59;5003652;28;20421;-63
2022/01/28 09:16:57;;;;;;;14.60;4.90;;;;;;;9.96;64.43;103447.44;5002367;28;20080;-63
2022/01/28 09:19:23;;;;;;;15.60;5.35;;;;;;;10.26;63.94;103443.34;4998370;28;20743;-63
2022/01/28 09:21:48;;;;;;;15.55;4.93;;;;;;;10.95;61.32;103438.53;4989044;28;20092;-63
2022/01/28 09:24:13;;;;;;;12.73;4.30;;;;;;;11.81;59.47;103438.84;4988002;28;20087;-63
2022/01/28 09:26:38;;;;;;;18.38;5.10;;;;;;;12.99;56.29;103450.72;4991251;28;20022;-63
2022/01/28 09:29:04;;;;;;;12.68;4.07;;;;;;;13.99;53.32;103456.06;5000368;28;20061;-63
2022/01/28 09:31:29;;;;;;;13.57;4.57;;;;;;;14.12;52.33;103460.06;5001225;28;20053;-63
2022/01/28 09:33:55;;;;;;;12.57;4.20;;;;;;;14.39;51.14;103464.03;4999339;28;20076;-63
2022/01/28 09:36:20;;;;;;;13.15;5.03;;;;;;;14.70;50.24;103463.84;5006717;28;20057;-63
2022/01/28 09:38:46;;;;;;;16.40;4.65;;;;;;;14.74;49.20;103467.94;5006141;28;20088;-63
2022/01/28 09:41:11;;;;;;;13.52;4.30;;;;;;;14.93;48.70;103469.22;5004562;28;20026;-63
2022/01/28 09:43:37;;;;;;;15.32;3.97;;;;;;;15.11;48.45;103468.78;4993752;28;20100;-63
2022/01/28 09:46:04;;;;;;;19.98;6.57;;;;;;;15.30;48.48;103462.56;5000777;28;20073;-63
2022/01/28 09:48:31;;;;;;;12.45;4.65;;;;;;;15.49;48.19;103464.66;5004191;28;20062;-62
2022/01/28 09:51:01;;;;;;;13.32;4.65;;;;;;;15.23;49.06;103469.97;4997767;28;20026;-63
2022/01/28 09:53:27;;;;;;;17.45;5.07;;;;;;;15.58;47.89;103471.78;5002650;28;20033;-63
2022/01/28 09:55:53;;;;;;;18.63;6.10;;;;;;;15.30;47.93;103477.25;4999824;28;20029;-63
2022/01/28 09:58:18;;;;;;;16.45;5.10;;;;;;;15.05;48.40;103493.44;5006646;28;20033;-63
2022/01/28 10:00:44;;;;;;;18.08;4.88;;;;;;;15.57;48.06;103483.94;5004649;28;20033;-63
2022/01/28 10:03:12;;;;;;;15.60;6.00;;;;;;;15.70;47.76;103483.19;5000222;28;20497;-63
2022/01/28 10:05:41;;;;;;;18.40;5.85;;;;;;;16.57;46.27;103488.25;5007253;28;20030;-63
2022/01/28 10:08:11;;;;;;;15.35;4.82;;;;;;;16.48;45.39;103481.16;5005973;28;20045;-63
2022/01/28 10:10:50;;;;;;;61.25;55.65;;;;;;;16.93;46.12;103484.38;5005478;28;20022;-63
2022/01/28 10:13:21;;;;;;;18.75;8.50;;;;;;;17.36;43.96;103484.88;5006735;28;20029;-63
2022/01/28 10:15:53;;;;;;;13.88;4.55;;;;;;;17.75;44.63;103490.69;5003661;28;20438;-63
2022/01/28 10:18:18;;;;;;;13.20;4.93;;;;;;;18.29;41.40;103484.81;5005027;28;20030;-63
2022/01/28 10:20:44;;;;;;;13.25;5.10;;;;;;;18.52;41.03;103483.47;5006065;28;20452;-63
2022/01/28 10:23:13;;;;;;;14.20;4.45;;;;;;;18.13;41.46;103486.13;5003918;28;20076;-63
2022/01/28 10:25:41;;;;;;;16.48;5.43;;;;;;;18.16;41.20;103482.09;5005378;28;20045;-63
2022/01/28 10:28:09;;;;;;;18.92;5.82;;;;;;;18.08;41.16;103483.16;5006665;28;20022;-63
2022/01/28 10:30:39;;;;;;;13.43;4.80;;;;;;;18.44;40.59;103492.06;5005200;28;20038;-63
2022/01/28 10:33:26;;;;;;;14.40;5.72;;;;;;;18.83;42.64;103496.63;5004361;28;20164;-63
2022/01/28 10:35:59;;;;;;;15.95;5.43;;;;;;;19.28;40.63;103497.44;5005155;28;20037;-63
2022/01/28 10:38:38;;;;;;;15.25;4.88;;;;;;;19.39;39.61;103502.28;4990569;28;20762;-63
2022/01/28 10:41:13;;;;;;;15.05;4.45;;;;;;;18.88;40.54;103502.41;4986177;28;20057;-63
2022/01/28 10:43:46;;;;;;;17.63;4.78;;;;;;;19.26;39.47;103496.84;4988927;28;20387;-63
2022/01/28 10:46:19;;;;;;;22.85;6.38;;;;;;;19.41;38.37;103500.16;4984947;28;20501;-63
2022/01/28 10:48:54;;;;;;;15.75;4.53;;;;;;;19.56;39.33;103485.84;4992451;28;20033;-63
2022/01/28 10:51:21;;;;;;;13.90;4.47;;;;;;;18.93;38.38;103488.66;4988646;28;20064;-63
2022/01/28 10:54:09;;;;;;;16.03;4.60;;;;;;;19.30;41.55;103484.13;4990894;28;20057;-63
2022/01/28 10:57:13;;;;;;;15.52;4.68;;;;;;;19.79;41.93;103470.47;4988753;28;20285;-63
2022/01/28 10:59:40;;;;;;;16.13;4.60;;;;;;;19.42;39.18;103476.78;4927309;29;20860;-63
2022/01/28 11:02:06;;;;;;;16.30;5.17;;;;;;;19.76;38.17;103476.50;4930160;29;20035;-63
2022/01/28 11:04:33;;;;;;;16.58;4.10;;;;;;;20.30;36.55;103472.94;4958848;28;20034;-63
2022/01/28 11:07:00;;;;;;;12.53;3.70;;;;;;;20.10;36.83;103463.94;4990936;28;20033;-63
2022/01/28 11:09:26;;;;;;;17.10;4.30;;;;;;;20.08;37.16;103464.19;4988688;28;20033;-61
2022/01/28 11:11:53;;;;;;;18.23;4.10;;;;;;;20.64;35.98;103465.06;4993728;28;20479;-61
2022/01/28 11:14:19;;;;;;;15.05;3.95;;;;;;;21.08;35.46;103455.38;4988272;28;20111;-61
2022/01/28 11:16:46;;;;;;;11.80;3.17;;;;;;;21.17;35.83;103459.53;4988272;28;20030;-60
2022/01/28 11:19:16;;;;;;;14.43;4.00;;;;;;;21.23;34.21;103454.94;4988159;28;20389;-60
2022/01/28 11:21:57;;;;;;;13.13;3.70;;;;;;;21.37;36.03;103447.25;4987134;28;20022;-60
2022/01/28 11:24:43;;;;;;;14.63;3.90;;;;;;;21.34;36.42;103439.31;4989045;28;20026;-61
2022/01/28 11:27:25;;;;;;;14.38;3.92;;;;;;;21.10;35.89;103436.47;4988905;28;20019;-61
2022/01/28 11:29:50;;;;;;;11.77;3.55;;;;;;;21.72;33.76;103433.28;4987894;28;20030;-61
2022/01/28 11:32:17;;;;;;;13.98;3.47;;;;;;;21.25;33.38;103424.81;4988041;28;20389;-61
2022/01/28 11:34:57;;;;;;;14.68;3.00;;;;;;;20.96;36.34;103429.34;4986309;28;20129;-60
2022/01/28 11:37:27;;;;;;;16.50;4.38;;;;;;;21.42;33.80;103428.66;4996963;28;20030;-61
2022/01/28 11:39:52;;;;;;;11.65;3.10;;;;;;;21.58;33.07;103418.69;4991237;28;20389;-60
2022/01/28 11:42:29;;;;;;;11.10;2.95;;;;;;;20.88;35.64;103410.13;4996599;28;20033;-61
2022/01/28 11:44:57;;;;;;;13.05;3.55;;;;;;;20.10;34.72;103414.56;4985003;28;20113;-61
2022/01/28 11:47:33;;;;;;;12.38;3.05;;;;;;;20.03;35.52;103416.59;4989448;28;20446;-60
2022/01/28 11:49:59;;;;;;;10.68;2.58;;;;;;;20.30;35.25;103407.91;4985071;28;20137;-60
2022/01/28 11:52:29;;;;;;;13.48;2.75;;;;;;;20.03;33.87;103408.22;4985860;28;20441;-60
2022/01/28 11:54:56;;;;;;;12.88;2.40;;;;;;;20.80;34.18;103425.28;4988629;28;20037;-60
2022/01/28 11:57:26;;;;;;;9.50;2.05;;;;;;;20.66;33.08;103413.44;4986946;28;20037;-61
2022/01/28 11:59:51;;;;;;;9.52;2.13;;;;;;;20.93;33.24;103418.66;4984334;28;20038;-60
2022/01/28 12:02:20;;;;;;;11.73;3.30;;;;;;;20.37;34.36;103414.25;4986340;28;20022;-60
2022/01/28 12:04:46;;;;;;;10.82;2.88;;;;;;;19.51;36.06;103415.16;4989601;28;20064;-61
2022/01/28 12:07:19;;;;;;;12.48;2.53;;;;;;;19.58;36.53;103410.38;4986775;28;20034;-63
2022/01/28 12:09:48;;;;;;;10.45;2.28;;;;;;;19.68;34.89;103414.38;4983966;28;20042;-63
2022/01/28 12:12:20;;;;;;;12.45;3.13;;;;;;;20.07;34.90;103403.00;4983299;28;20265;-63
2022/01/28 12:14:48;;;;;;;8.57;2.30;;;;;;;19.92;34.92;103407.06;4991569;28;20076;-63
2022/01/28 12:17:29;;;;;;;;;;;;;;;20.61;35.33;103404.94;4987789;28;20064;-63
2022/01/28 12:20:16;;;;;;;12.10;3.10;;;;;;;20.11;35.81;103387.53;4986604;28;19923;-63
2022/01/28 12:23:02;;;;;;;14.43;2.80;;;;;;;19.39;37.35;103389.97;4985993;28;20031;-63
2022/01/28 12:25:37;;;;;;;14.05;2.90;;;;;;;18.98;37.27;103384.94;4989371;28;20304;-63
2022/01/28 12:28:11;;;;;;;12.32;3.10;;;;;;;18.62;38.37;103383.66;4986182;28;20026;-63
2022/01/28 12:30:36;;;;;;;9.18;2.80;;;;;;;18.14;36.79;103386.84;4985053;28;20426;-63
2022/01/28 12:33:02;;;;;;;11.52;3.05;;;;;;;16.25;40.19;103375.22;4985723;28;20101;-63
2022/01/28 12:35:27;;;;;;;16.38;3.22;;;;;;;14.57;44.01;103380.72;4990756;28;20100;-64
2022/01/28 12:37:59;;;;;;;9.07;3.13;;;;;;;13.21;47.68;103373.63;4985937;28;20025;-63
2022/01/28 12:40:29;;;;;;;14.68;3.22;;;;;;;12.94;50.66;103373.19;4994245;28;20097;-63
2022/01/28 12:42:55;;;;;;;16.90;3.55;;;;;;;14.70;46.52;103358.72;4994699;28;20030;-63
2022/01/28 12:45:20;;;;;;;12.55;3.35;;;;;;;16.07;43.91;103359.16;5008154;28;20037;-64
2022/01/28 12:47:46;;;;;;;11.35;2.95;;;;;;;16.99;40.82;103360.50;4996757;28;20865;-64
2022/01/28 12:50:12;;;;;;;12.93;3.80;;;;;;;17.38;39.13;103354.91;4999645;28;20205;-63
2022/01/28 12:52:38;;;;;;;14.27;3.58;;;;;;;16.93;38.66;103353.88;4993255;28;20036;-64